Time;durP1;ratioP1;P1;durP2;ratioP2;P2;SDS_P1;SDS_P2;PMS_P1;PMS_P2;Temp;Humidity;BMP_temperature;BMP_pressure;BME280_temperature;BME280_humidity;BME280_pressure;Samples;Min_cycle;Max_cycle;Signal;HPM_P1;HPM_P2
2022/12/20 05:04:49;;;;;;;42.00;23.12;;;;;;;2.79;72.89;102210.59;5606407;31;78126;-54
2022/12/20 05:07:52;;;;;;;41.90;23.45;;;;;;;2.79;72.89;102210.59;5583700;31;33934;-54
2022/12/20 05:10:54;;;;;;;42.45;22.48;;;;;;;2.38;82.33;102199.59;5583575;31;33271;-54
2022/12/20 05:13:57;;;;;;;42.10;23.30;;;;;;;2.29;73.59;102215.56;5583590;31;34409;-54
2022/12/20 05:16:59;;;;;;;43.40;23.80;;;;;;;2.24;75.91;102209.16;5583614;31;33294;-54
2022/12/20 05:20:04;;;;;;;41.53;24.67;;;;;;;2.46;87.51;102215.41;5583348;31;33097;-54
2022/12/20 05:26:36;;;;;;;42.40;24.25;;;;;;;2.38;72.70;102211.00;5583288;32;33234;-54
2022/12/20 05:29:38;;;;;;;38.72;22.75;;;;;;;2.39;72.97;102222.44;5583573;31;33606;-55
2022/12/20 05:32:41;;;;;;;35.88;22.70;;;;;;;2.16;73.43;102219.84;5582993;31;33095;-54
2022/12/20 05:35:43;;;;;;;39.30;22.58;;;;;;;2.35;71.80;102219.31;5583450;31;33735;-54
2022/12/20 05:38:46;;;;;;;41.97;23.58;;;;;;;2.27;71.79;102227.34;5583528;32;34751;-54
2022/12/20 05:41:49;;;;;;;41.53;22.95;;;;;;;2.09;73.55;102220.56;5583549;31;33535;-54
2022/12/20 05:44:52;;;;;;;37.85;22.80;;;;;;;2.08;80.30;102226.00;5568541;31;34785;-54
2022/12/20 05:47:55;;;;;;;38.20;23.23;;;;;;;2.11;73.46;102223.00;5563848;32;33613;-55
2022/12/20 05:50:57;;;;;;;39.10;23.10;;;;;;;2.29;73.97;102218.22;5563663;32;34489;-54
2022/12/20 05:53:59;;;;;;;40.95;24.67;;;;;;;2.22;76.11;102216.44;5563363;32;33297;-54
2022/12/20 05:57:03;;;;;;;40.47;22.23;;;;;;;2.26;76.60;102215.94;5563626;32;33304;-54
2022/12/20 06:00:07;;;;;;;38.58;23.55;;;;;;;2.59;79.63;102205.00;5562637;32;33367;-54
2022/12/20 06:03:17;;;;;;;42.75;23.70;;;;;;;2.34;83.51;102199.97;5561614;32;34246;-54
2022/12/20 06:06:20;;;;;;;43.25;21.73;;;;;;;2.68;83.49;102198.63;5563563;32;33737;-55
2022/12/20 06:09:23;;;;;;;38.67;22.62;;;;;;;2.69;75.85;102183.56;5576815;31;33349;-54
2022/12/20 06:12:26;;;;;;;41.88;22.52;;;;;;;2.57;82.73;102185.81;5578487;31;33330;-55
2022/12/20 06:15:29;;;;;;;40.78;23.27;;;;;;;2.45;71.70;102184.62;5563054;32;33495;-54
2022/12/20 06:18:32;;;;;;;38.67;23.08;;;;;;;2.58;84.43;102185.66;5558894;32;34119;-54
2022/12/20 06:21:34;;;;;;;39.70;23.60;;;;;;;2.51;73.42;102170.66;5552206;32;33635;-54
2022/12/20 06:24:38;;;;;;;42.13;23.77;;;;;;;2.50;78.50;102171.69;5568269;32;33413;-54
2022/12/20 06:27:49;;;;;;;40.10;23.83;;;;;;;2.30;71.27;102176.69;5569663;31;34298;-54
2022/12/20 06:30:53;;;;;;;42.58;23.27;;;;;;;2.14;75.26;102179.50;5556737;32;33373;-54
2022/12/20 06:33:57;;;;;;;38.47;22.73;;;;;;;2.29;73.43;102170.59;5550020;32;33437;-54
2022/12/20 06:37:00;;;;;;;40.97;23.40;;;;;;;2.14;72.83;102176.84;5549758;32;33261;-55
2022/12/20 06:40:04;;;;;;;39.60;21.67;;;;;;;2.21;75.12;102168.00;5563234;32;34301;-54
2022/12/20 06:43:07;;;;;;;38.22;21.52;;;;;;;2.55;90.37;102169.28;5565892;31;34083;-55
2022/12/20 06:46:09;;;;;;;37.78;20.98;;;;;;;2.56;73.62;102173.59;5568629;32;33618;-54
2022/12/20 06:49:11;;;;;;;36.53;21.73;;;;;;;2.35;73.64;102172.50;5568803;32;33596;-54
2022/12/20 06:52:13;;;;;;;39.50;24.10;;;;;;;2.23;74.61;102154.59;5566264;32;33789;-54
2022/12/20 06:55:16;;;;;;;42.20;22.17;;;;;;;2.39;74.06;102165.03;5568115;32;33351;-54
2022/12/20 06:58:19;;;;;;;36.22;22.73;;;;;;;2.35;72.02;102159.28;5562294;32;33374;-54
2022/12/20 07:01:22;;;;;;;38.35;22.83;;;;;;;2.44;73.09;102148.59;5549667;32;33393;-53
2022/12/20 07:04:24;;;;;;;35.95;21.23;;;;;;;2.40;71.70;102149.97;5548911;32;33805;-54
2022/12/20 07:07:26;;;;;;;40.55;22.60;;;;;;;2.73;82.78;102145.91;5558296;32;33206;-54
2022/12/20 07:10:30;;;;;;;39.70;22.33;;;;;;;2.68;88.23;102143.03;5567234;32;34309;-55
2022/12/20 07:13:33;;;;;;;36.65;22.17;;;;;;;2.94;86.80;102146.97;5567037;32;33373;-54
2022/12/20 07:16:36;;;;;;;33.80;22.95;;;;;;;3.01;94.50;102142.56;5566726;32;33633;-54
2022/12/20 07:19:39;;;;;;;39.00;22.75;;;;;;;3.10;92.71;102132.69;5556257;32;34308;-54
2022/12/20 07:22:48;;;;;;;50.33;24.35;;;;;;;3.04;77.26;102132.41;5549152;32;34439;-54
2022/12/20 07:25:59;;;;;;;39.90;22.52;;;;;;;3.28;83.30;102138.41;5550307;32;33208;-55
2022/12/20 07:29:01;;;;;;;39.03;20.10;;;;;;;2.93;70.91;102145.34;5551609;32;33314;-54
2022/12/20 07:32:03;;;;;;;45.70;22.00;;;;;;;2.72;73.22;102152.22;5558702;32;33869;-55
2022/12/20 07:35:06;;;;;;;37.22;21.33;;;;;;;2.71;72.67;102153.22;5549784;32;33073;-54
2022/12/20 07:38:09;;;;;;;76.37;36.83;;;;;;;2.63;71.27;102150.69;5552802;32;33647;-54
2022/12/20 07:41:14;;;;;;;43.60;24.23;;;;;;;2.76;81.09;102156.16;5567247;32;34340;-55
2022/12/20 07:44:16;;;;;;;40.45;23.85;;;;;;;2.77;86.24;102157.78;5548938;32;34310;-54
2022/12/20 07:47:19;;;;;;;37.05;21.55;;;;;;;2.94;82.52;102153.09;5557515;32;33755;-54
2022/12/20 07:50:22;;;;;;;37.67;21.73;;;;;;;2.98;72.76;102150.88;5564139;32;33790;-55
2022/12/20 07:53:27;;;;;;;34.45;21.05;;;;;;;2.90;72.80;102151.00;5565389;32;33630;-54
2022/12/20 07:56:33;;;;;;;35.20;21.92;;;;;;;3.17;92.23;102152.13;5567904;32;34361;-54
2022/12/20 07:59:53;;;;;;;32.42;20.75;;;;;;;3.32;84.38;102152.09;5567745;32;33716;-54
2022/12/20 08:03:10;;;;;;;36.05;20.95;;;;;;;3.03;70.27;102148.50;5564605;32;33547;-55
2022/12/20 08:06:14;;;;;;;32.55;19.80;;;;;;;2.96;69.87;102152.91;5568213;32;33255;-54
2022/12/20 08:09:18;;;;;;;33.13;20.02;;;;;;;2.95;75.41;102138.03;5568312;32;33385;-54
2022/12/20 08:12:20;;;;;;;41.25;21.37;;;;;;;3.48;92.03;102131.47;5567871;32;33690;-54
2022/12/20 08:15:23;;;;;;;33.45;18.52;;;;;;;3.59;93.97;102116.03;5568054;32;33215;-54
2022/12/20 08:18:26;;;;;;;33.28;20.30;;;;;;;3.54;89.81;102108.63;5568079;32;33606;-54
2022/12/20 08:21:29;;;;;;;33.72;18.73;;;;;;;3.59;86.25;102108.09;5567811;32;34428;-54
2022/12/20 08:24:33;;;;;;;36.53;20.92;;;;;;;3.52;69.84;102100.91;5568199;32;33568;-54
2022/12/20 08:27:35;;;;;;;31.95;19.08;;;;;;;3.80;79.97;102102.72;5556394;32;33656;-55
2022/12/20 08:30:37;;;;;;;30.08;18.70;;;;;;;3.43;71.67;102109.16;5564668;32;33599;-54
2022/12/20 08:33:40;;;;;;;30.30;19.05;;;;;;;3.23;69.52;102107.13;5567839;32;33632;-54
2022/12/20 08:36:42;;;;;;;30.37;18.48;;;;;;;3.40;85.70;102106.88;5567201;32;33541;-54
2022/12/20 08:39:45;;;;;;;29.23;18.83;;;;;;;3.22;68.62;102105.50;5567818;32;33320;-55
2022/12/20 08:42:47;;;;;;;32.22;18.95;;;;;;;3.94;86.07;102104.50;5567521;32;33664;-54
2022/12/20 08:45:53;;;;;;;30.58;18.20;;;;;;;3.60;66.90;102107.87;5567530;32;34280;-54
2022/12/20 08:48:56;;;;;;;35.08;18.55;;;;;;;3.67;79.84;102103.44;5567402;32;33680;-54
2022/12/20 08:51:58;;;;;;;33.10;19.55;;;;;;;3.85;73.44;102112.78;5568009;32;33349;-54
2022/12/20 08:55:00;;;;;;;32.63;18.33;;;;;;;3.86;83.68;102101.16;5567636;32;33571;-55
2022/12/20 08:58:06;;;;;;;30.10;18.33;;;;;;;3.65;75.03;102092.22;5567924;32;33764;-54
2022/12/20 09:01:25;;;;;;;33.22;19.23;;;;;;;3.95;71.35;102089.38;5567184;32;34000;-54
2022/12/20 09:04:27;;;;;;;34.53;19.25;;;;;;;3.74;86.39;102091.09;5566950;32;34215;-54
2022/12/20 09:07:30;;;;;;;30.75;19.15;;;;;;;4.27;84.49;102095.06;5565184;32;33313;-54
2022/12/20 09:10:32;;;;;;;32.30;18.95;;;;;;;3.84;66.02;102100.50;5551849;32;33795;-54
2022/12/20 09:13:34;;;;;;;30.33;18.90;;;;;;;3.95;68.94;102092.84;5561684;32;33288;-54
2022/12/20 09:16:44;;;;;;;32.92;19.27;;;;;;;3.98;73.57;102100.44;5565542;32;34206;-54
2022/12/20 09:19:47;;;;;;;32.38;18.87;;;;;;;3.68;67.28;102104.28;5561218;32;33341;-54
2022/12/20 09:22:49;;;;;;;30.92;18.58;;;;;;;3.84;79.34;102100.50;5550987;32;33627;-54
2022/12/20 09:25:52;;;;;;;35.15;19.83;;;;;;;4.00;66.68;102094.91;5558112;32;33680;-54
2022/12/20 09:28:55;;;;;;;32.60;19.37;;;;;;;4.20;89.60;102100.34;5565723;32;34421;-54
2022/12/20 09:31:58;;;;;;;31.23;19.30;;;;;;;4.35;72.72;102097.59;5559426;32;34328;-55
2022/12/20 09:35:00;;;;;;;30.40;18.23;;;;;;;4.06;67.14;102095.97;5564361;32;33324;-54
2022/12/20 09:38:03;;;;;;;29.52;18.12;;;;;;;4.22;87.41;102085.88;5549485;32;33340;-54
2022/12/20 09:41:08;;;;;;;33.70;19.20;;;;;;;4.57;91.99;102066.41;5551414;32;33706;-54
2022/12/20 09:44:19;;;;;;;32.53;17.83;;;;;;;4.65;78.58;102045.81;5564600;32;33770;-54
2022/12/20 09:47:23;;;;;;;33.15;18.58;;;;;;;4.66;68.66;102044.78;5562995;32;33633;-54
2022/12/20 09:50:45;;;;;;;32.17;18.48;;;;;;;4.58;92.38;102039.66;5566267;32;34453;-54
2022/12/20 09:53:56;;;;;;;30.80;18.65;;;;;;;4.59;81.47;102029.84;5569395;32;34296;-54
2022/12/20 09:57:22;;;;;;;32.65;19.27;;;;;;;4.46;78.09;102043.91;5568620;32;34171;-54
2022/12/20 10:00:25;;;;;;;30.77;18.67;;;;;;;4.63;74.63;102039.06;5564480;32;33625;-55
2022/12/20 10:03:34;;;;;;;29.40;17.98;;;;;;;4.45;72.98;102040.44;5569129;32;33698;-54
2022/12/20 10:06:58;;;;;;;30.83;18.08;;;;;;;4.60;84.93;102036.78;5568527;32;33722;-54
2022/12/20 10:10:22;;;;;;;31.17;18.35;;;;;;;4.89;85.84;102035.66;5566013;32;34662;-54
2022/12/20 10:13:27;;;;;;;32.05;19.27;;;;;;;4.49;63.71;102024.91;5567722;32;33450;-54
2022/12/20 10:16:44;;;;;;;40.12;19.35;;;;;;;4.65;77.23;102023.75;5565017;32;33786;-54
2022/12/20 10:20:07;;;;;;;30.30;17.85;;;;;;;4.50;70.28;102026.53;5555772;32;33710;-54
2022/12/20 10:23:29;;;;;;;28.83;17.27;;;;;;;4.33;77.80;102012.00;5564369;32;34256;-54
2022/12/20 10:26:34;;;;;;;34.85;17.70;;;;;;;4.86;86.24;102012.13;5568490;32;33639;-54
2022/12/20 10:29:37;;;;;;;36.95;17.27;;;;;;;4.44;64.05;101998.97;5562979;32;33291;-54
2022/12/20 10:32:41;;;;;;;29.92;17.50;;;;;;;4.36;64.45;102006.28;5557135;32;35302;-54
2022/12/20 10:35:44;;;;;;;26.60;16.42;;;;;;;4.64;73.85;101993.72;5549575;32;34388;-54
2022/12/20 10:38:49;;;;;;;26.15;16.15;;;;;;;4.81;70.88;101985.38;5557462;32;33677;-54
2022/12/20 10:41:52;;;;;;;29.42;18.35;;;;;;;5.18;80.78;101974.12;5569143;32;33849;-54
2022/12/20 10:44:55;;;;;;;30.27;17.27;;;;;;;5.13;81.03;101967.78;5568136;32;33569;-54
2022/12/20 10:48:00;;;;;;;28.23;17.35;;;;;;;4.81;70.87;101964.09;5565440;32;33677;-54
2022/12/20 10:51:08;;;;;;;29.35;18.00;;;;;;;5.30;78.73;101962.91;5561175;32;33673;-54
2022/12/20 10:54:35;;;;;;;28.55;16.77;;;;;;;5.07;72.19;101960.66;5568518;32;33410;-54
2022/12/20 10:57:41;;;;;;;25.77;16.95;;;;;;;5.35;70.37;101957.75;5568621;32;33815;-54
2022/12/20 11:00:44;;;;;;;26.48;16.05;;;;;;;5.16;61.28;101957.56;5561833;32;33872;-54
2022/12/20 11:03:56;;;;;;;28.70;16.92;;;;;;;5.06;65.46;101946.53;5568604;32;34417;-54
2022/12/20 11:07:02;;;;;;;27.05;16.58;;;;;;;5.03;67.41;101930.16;5568548;32;33725;-54
2022/12/20 11:10:25;;;;;;;26.58;16.80;;;;;;;4.81;61.46;101924.25;5557905;32;33757;-54
2022/12/20 11:13:28;;;;;;;24.95;16.27;;;;;;;4.91;67.27;101927.31;5556732;32;34363;-54
2022/12/20 11:16:40;;;;;;;26.10;17.02;;;;;;;4.85;63.80;101918.31;5567527;32;33939;-54
2022/12/20 11:20:13;;;;;;;27.20;17.25;;;;;;;4.86;67.99;101903.19;5567463;32;33646;-54
2022/12/20 11:23:32;;;;;;;25.83;16.27;;;;;;;4.94;66.79;101905.66;5562103;32;34382;-54
2022/12/20 11:26:44;;;;;;;31.17;16.95;;;;;;;4.99;69.49;101903.19;5568736;32;33735;-54
2022/12/20 11:30:08;;;;;;;29.30;17.27;;;;;;;5.14;72.90;101900.31;5567976;32;34494;-54
2022/12/20 11:33:26;;;;;;;28.27;16.58;;;;;;;4.89;65.12;101908.09;5562338;32;34098;-54
2022/12/20 11:36:48;;;;;;;29.30;17.35;;;;;;;5.17;68.43;101889.28;5557688;32;34397;-54
2022/12/20 11:39:56;;;;;;;27.08;16.70;;;;;;;5.15;75.95;101884.16;5563475;32;33260;-54
2022/12/20 11:43:35;;;;;;;28.23;17.42;;;;;;;5.06;60.91;101890.69;5556867;32;33212;-54
2022/12/20 11:47:13;;;;;;;26.98;17.92;;;;;;;4.95;66.20;101886.03;5568582;32;34417;-54
2022/12/20 11:50:26;;;;;;;27.55;16.30;;;;;;;5.57;77.29;101883.84;5568613;32;33806;-54
2022/12/20 11:53:44;;;;;;;28.20;18.70;;;;;;;5.09;60.63;101871.69;5568791;32;33632;-54
2022/12/20 11:56:52;;;;;;;27.13;17.12;;;;;;;5.42;66.57;101876.12;5560314;32;33904;-54
2022/12/20 11:59:59;;;;;;;28.23;16.85;;;;;;;5.39;66.88;101876.53;5560468;32;34453;-54
2022/12/20 12:03:13;;;;;;;31.52;18.12;;;;;;;5.54;76.36;101866.47;5563009;32;33915;-54
2022/12/20 12:06:25;;;;;;;27.98;17.20;;;;;;;5.38;60.82;101878.38;5555746;32;33659;-54
2022/12/20 12:09:45;;;;;;;29.30;18.33;;;;;;;5.23;68.17;101869.84;5558687;32;33690;-54
2022/12/20 12:13:19;;;;;;;27.15;17.05;;;;;;;5.57;68.76;101866.06;5558984;32;34439;-54
2022/12/20 12:16:27;;;;;;;27.50;16.50;;;;;;;5.72;69.54;101852.47;5549214;32;33789;-54
2022/12/20 12:19:31;;;;;;;30.85;17.33;;;;;;;5.93;68.52;101850.56;5562276;32;34551;-54
2022/12/20 12:22:37;;;;;;;28.42;17.67;;;;;;;5.69;61.95;101854.75;5557403;32;33783;-55
2022/12/20 12:25:39;;;;;;;39.05;26.90;;;;;;;5.78;76.00;101854.28;5556946;32;33726;-54
2022/12/20 12:28:42;;;;;;;29.05;16.62;;;;;;;6.17;83.37;101855.12;5567823;32;33798;-54
2022/12/20 12:32:01;;;;;;;28.87;17.83;;;;;;;6.25;61.29;101841.56;5568930;32;33738;-54
2022/12/20 12:35:23;;;;;;;28.75;18.98;;;;;;;6.12;68.58;101845.16;5557224;32;33269;-53
2022/12/20 12:39:21;;;;;;;31.33;17.87;;;;;;;6.05;66.76;101840.88;5560750;32;34156;-54
2022/12/20 12:42:57;;;;;;;25.35;16.08;;;;;;;6.23;64.56;101834.84;5561222;32;33883;-54
2022/12/20 12:46:00;;;;;;;;;;;;;;;6.41;77.12;101826.09;5553663;32;34013;-54
2022/12/20 12:49:21;;;;;;;29.83;16.48;;;;;;;6.33;75.45;101824.53;5560928;32;34243;-55
2022/12/20 12:52:41;;;;;;;28.52;17.20;;;;;;;6.28;68.64;101817.16;5559044;32;34450;-55
2022/12/20 12:55:45;;;;;;;28.90;17.65;;;;;;;6.10;81.86;101814.44;5559609;32;33821;-54
2022/12/20 12:59:06;;;;;;;30.55;18.65;;;;;;;5.72;61.90;101828.53;5558733;32;33742;-54
2022/12/20 13:02:11;;;;;;;32.08;20.27;;;;;;;5.59;69.36;101818.75;5566407;32;33633;-55
2022/12/20 13:05:20;;;;;;;30.03;20.80;;;;;;;5.49;62.49;101817.56;5561300;32;33671;-54
2022/12/20 13:08:48;;;;;;;27.17;17.62;;;;;;;5.14;62.64;101820.56;5567762;32;33793;-54
2022/12/20 13:11:52;;;;;;;30.80;19.83;;;;;;;5.30;67.32;101814.00;5562209;32;33734;-54
2022/12/20 13:15:27;;;;;;;29.40;18.33;;;;;;;5.26;68.24;101818.88;5548314;32;33742;-54
2022/12/20 13:18:29;;;;;;;29.83;19.02;;;;;;;5.22;74.44;101811.53;5551383;32;34368;-54
2022/12/20 13:21:35;;;;;;;32.30;18.15;;;;;;;5.63;73.03;101809.34;5563481;32;33626;-54
2022/12/20 13:24:53;;;;;;;26.77;16.62;;;;;;;5.58;72.10;101808.34;5552369;32;33730;-54
2022/12/20 13:28:14;;;;;;;29.37;18.35;;;;;;;5.60;70.04;101803.63;5557701;32;34362;-54
2022/12/20 13:31:29;;;;;;;30.75;17.48;;;;;;;5.72;73.97;101803.75;5550380;32;33791;-53
2022/12/20 13:34:54;;;;;;;30.42;18.70;;;;;;;5.83;74.25;101803.09;5569314;32;34345;-54
2022/12/20 13:38:04;;;;;;;29.15;16.45;;;;;;;5.49;61.88;101790.97;5567571;32;32183;-54
2022/12/20 13:41:36;;;;;;;31.83;19.50;;;;;;;5.33;72.77;101792.25;5559144;32;33762;-54
2022/12/20 13:44:43;;;;;;;29.10;18.30;;;;;;;5.63;74.96;101804.03;5570552;31;34325;-53
2022/12/20 13:47:53;;;;;;;31.52;18.58;;;;;;;5.50;71.97;101792.63;5570462;32;34348;-53
2022/12/20 13:50:56;;;;;;;31.85;17.67;;;;;;;5.74;85.13;101788.41;5570425;32;34432;-54
2022/12/20 13:54:02;;;;;;;34.35;18.87;;;;;;;5.82;68.05;101778.31;5569539;32;33792;-54
2022/12/20 13:57:05;;;;;;;28.15;18.50;;;;;;;5.80;63.57;101793.69;5569699;32;33676;-54
2022/12/20 14:00:17;;;;;;;27.55;16.98;;;;;;;5.57;71.12;101782.78;5570447;32;33188;-54
2022/12/20 14:03:23;;;;;;;34.28;18.23;;;;;;;5.33;74.29;101761.19;5553148;32;34311;-53
2022/12/20 14:06:26;;;;;;;30.45;18.75;;;;;;;5.42;72.31;101759.91;5551715;32;33850;-54
2022/12/20 14:09:36;;;;;;;33.33;19.23;;;;;;;5.48;68.12;101760.09;5570185;32;33681;-54
2022/12/20 14:12:44;;;;;;;30.48;20.75;;;;;;;5.36;60.55;101757.28;5570266;32;33669;-54
2022/12/20 14:15:48;;;;;;;32.28;19.20;;;;;;;5.36;67.37;101754.63;5570124;32;33815;-54
2022/12/20 14:18:56;;;;;;;29.23;18.35;;;;;;;5.47;62.02;101751.31;5570338;32;33654;-54
2022/12/20 14:21:59;;;;;;;30.25;17.87;;;;;;;5.31;59.86;101757.12;5568707;32;33740;-54
2022/12/20 14:25:05;;;;;;;31.25;18.83;;;;;;;5.32;69.17;101750.75;5569846;32;33635;-54
2022/12/20 14:28:17;;;;;;;30.35;17.33;;;;;;;5.26;65.75;101755.06;5570349;32;33595;-54
2022/12/20 14:31:35;;;;;;;31.17;18.52;;;;;;;5.37;75.31;101750.94;5566367;32;33647;-53
2022/12/20 14:34:42;;;;;;;32.90;21.52;;;;;;;5.24;64.65;101745.69;5569378;32;33681;-54
2022/12/20 14:37:55;;;;;;;30.20;18.08;;;;;;;5.13;64.27;101731.19;5570198;32;33748;-53
2022/12/20 14:40:58;;;;;;;33.88;19.02;;;;;;;4.99;67.07;101726.97;5569906;32;33748;-53
2022/12/20 14:44:06;;;;;;;27.58;17.73;;;;;;;4.77;63.00;101719.28;5569625;32;33668;-53
2022/12/20 14:47:26;;;;;;;28.73;18.25;;;;;;;4.89;66.38;101720.25;5569983;32;33661;-54
2022/12/20 14:50:35;;;;;;;34.75;18.02;;;;;;;4.78;61.77;101709.47;5550628;32;33813;-54
2022/12/20 14:53:39;;;;;;;29.63;18.52;;;;;;;4.79;63.62;101716.41;5566403;32;34325;-54
2022/12/20 14:56:45;;;;;;;32.03;17.87;;;;;;;4.99;80.89;101709.16;5569626;32;34436;-54
2022/12/20 15:00:26;;;;;;;29.75;17.55;;;;;;;5.23;64.59;101705.00;5569631;32;34485;-54
2022/12/20 15:03:28;;;;;;;33.97;18.05;;;;;;;5.09;67.93;101712.19;5569237;32;34237;-54
2022/12/20 15:06:43;;;;;;;37.47;21.33;;;;;;;5.26;69.87;101719.69;5569783;32;34521;-54
2022/12/20 15:09:45;;;;;;;35.33;19.30;;;;;;;5.33;66.18;101721.31;5566021;32;34247;-54
2022/12/20 15:12:47;;;;;;;33.92;21.10;;;;;;;5.57;72.25;101719.75;5569506;32;34420;-54
2022/12/20 15:15:49;;;;;;;35.78;21.73;;;;;;;5.51;78.45;101717.94;5569728;32;33779;-54
2022/12/20 15:19:00;;;;;;;35.63;22.55;;;;;;;5.57;69.90;101726.91;5569834;32;34468;-54
2022/12/20 15:22:02;;;;;;;35.70;22.52;;;;;;;5.41;71.04;101714.91;5568983;32;33696;-54
2022/12/20 15:25:15;;;;;;;36.58;22.95;;;;;;;5.32;71.25;101713.53;5569452;32;33799;-54
2022/12/20 15:28:20;;;;;;;34.10;21.62;;;;;;;5.44;73.10;101719.00;5569717;32;33811;-54
2022/12/20 15:31:24;;;;;;;33.70;22.13;;;;;;;5.40;70.99;101710.63;5569439;32;33738;-54
2022/12/20 15:34:36;;;;;;;37.85;22.87;;;;;;;5.22;70.87;101715.84;5569589;32;34390;-54
2022/12/20 15:37:39;;;;;;;35.63;22.02;;;;;;;5.14;74.54;101716.91;5569816;32;33811;-54
2022/12/20 15:40:43;;;;;;;40.42;23.95;;;;;;;5.28;75.33;101725.63;5569538;32;33630;-54
2022/12/20 15:43:48;;;;;;;39.95;24.02;;;;;;;4.96;70.62;101722.88;5562886;31;33734;-54
2022/12/20 15:46:50;;;;;;;32.72;23.12;;;;;;;5.06;79.11;101728.56;5568577;32;33933;-54
2022/12/20 15:49:53;;;;;;;44.17;25.70;;;;;;;5.18;78.79;101737.53;5569576;32;33692;-54
2022/12/20 15:52:57;;;;;;;40.90;24.25;;;;;;;5.09;67.26;101738.78;5569285;32;34610;-54
2022/12/20 15:55:59;;;;;;;38.92;24.77;;;;;;;4.74;68.17;101737.47;5569542;32;33782;-54
2022/12/20 15:59:01;;;;;;;39.78;24.45;;;;;;;4.71;78.77;101736.84;5569456;32;33797;-54
2022/12/20 16:02:27;;;;;;;39.92;25.00;;;;;;;4.77;74.45;101724.59;5568813;32;33810;-54
2022/12/20 16:05:30;;;;;;;50.75;25.45;;;;;;;5.13;73.19;101729.38;5569381;32;33783;-54
2022/12/20 16:08:32;;;;;;;38.53;23.10;;;;;;;4.88;69.54;101725.78;5569298;32;33716;-54
2022/12/20 16:11:34;;;;;;;43.70;26.08;;;;;;;4.82;75.36;101726.59;5568239;32;33637;-53
2022/12/20 16:14:37;;;;;;;40.33;23.90;;;;;;;4.65;67.34;101728.91;5569336;32;34413;-54
2022/12/20 16:17:39;;;;;;;37.65;23.52;;;;;;;4.79;83.80;101729.69;5569414;32;34418;-53
2022/12/20 16:20:42;;;;;;;44.10;25.48;;;;;;;4.84;78.05;101730.69;5567975;32;33794;-54
2022/12/20 16:23:46;;;;;;;39.70;24.27;;;;;;;4.81;74.65;101722.31;5564874;32;33642;-54
2022/12/20 16:26:48;;;;;;;39.97;24.65;;;;;;;4.91;79.06;101725.37;5569166;32;33891;-54
2022/12/20 16:29:50;;;;;;;39.35;24.63;;;;;;;5.05;72.13;101728.78;5569330;32;33669;-54
2022/12/20 16:32:53;;;;;;;42.38;23.65;;;;;;;4.95;78.49;101716.75;5568917;32;33741;-54
2022/12/20 16:35:55;;;;;;;39.63;23.95;;;;;;;4.61;67.54;101717.06;5569140;32;34395;-54
2022/12/20 16:38:58;;;;;;;39.33;24.27;;;;;;;5.10;76.03;101707.69;5569048;32;33619;-54
2022/12/20 16:42:00;;;;;;;39.15;24.23;;;;;;;4.74;66.68;101705.59;5568874;32;34370;-55
2022/12/20 16:45:03;;;;;;;37.70;22.55;;;;;;;4.93;76.79;101713.50;5568855;32;33652;-54
2022/12/20 16:48:05;;;;;;;38.42;24.25;;;;;;;5.06;69.60;101701.97;5568522;32;34375;-54
2022/12/20 16:51:32;;;;;;;41.35;25.23;;;;;;;4.81;70.47;101711.69;5567483;32;33649;-54
2022/12/20 16:54:35;;;;;;;39.42;25.52;;;;;;;4.86;83.68;101707.38;5564913;32;33543;-54
